sensor_id;sensor_type;location;lat;lon;timestamp;temperature;humidity
3202;DHT22;34843;48.744;8.958;2024-02-15T00:00:20;9.90;99.90
3202;DHT22;34843;48.744;8.958;2024-02-15T00:02:45;9.90;99.90
3202;DHT22;34843;48.744;8.958;2024-02-15T00:05:12;9.90;99.90
3202;DHT22;34843;48.744;8.958;2024-02-15T00:07:38;9.90;99.90
3202;DHT22;34843;48.744;8.958;2024-02-15T00:10:04;10.00;99.90
3202;DHT22;34843;48.744;8.958;2024-02-15T00:12:31;10.00;99.90
3202;DHT22;34843;48.744;8.958;2024-02-15T00:14:57;10.10;99.90
3202;DHT22;34843;48.744;8.958;2024-02-15T00:17:27;10.00;99.90
3202;DHT22;34843;48.744;8.958;2024-02-15T00:19:54;10.00;99.90
3202;DHT22;34843;48.744;8.958;2024-02-15T00:22:20;10.00;99.90
3202;DHT22;34843;48.744;8.958;2024-02-15T00:24:46;10.00;99.90
3202;DHT22;34843;48.744;8.958;2024-02-15T00:27:17;10.10;99.90
3202;DHT22;34843;48.744;8.958;2024-02-15T00:29:42;10.10;99.90
3202;DHT22;34843;48.744;8.958;2024-02-15T00:32:09;10.10;99.90
3202;DHT22;34843;48.744;8.958;2024-02-15T00:34:38;10.00;99.90
3202;DHT22;34843;48.744;8.958;2024-02-15T00:37:07;10.00;99.90
3202;DHT22;34843;48.744;8.958;2024-02-15T00:39:32;9.90;99.90
3202;DHT22;34843;48.744;8.958;2024-02-15T00:41:58;9.80;99.90
3202;DHT22;34843;48.744;8.958;2024-02-15T00:44:26;9.70;99.90
3202;DHT22;34843;48.744;8.958;2024-02-15T00:46:51;9.50;99.90
3202;DHT22;34843;48.744;8.958;2024-02-15T00:49:17;9.40;99.90
3202;DHT22;34843;48.744;8.958;2024-02-15T00:51:45;9.30;99.90
3202;DHT22;34843;48.744;8.958;2024-02-15T00:54:11;9.30;99.90
3202;DHT22;34843;48.744;8.958;2024-02-15T00:56:36;9.30;99.90
3202;DHT22;34843;48.744;8.958;2024-02-15T00:59:02;9.40;99.90
3202;DHT22;34843;48.744;8.958;2024-02-15T01:01:28;9.30;99.90
3202;DHT22;34843;48.744;8.958;2024-02-15T01:03:54;9.20;99.90
3202;DHT22;34843;48.744;8.958;2024-02-15T01:06:20;9.20;99.90
3202;DHT22;34843;48.744;8.958;2024-02-15T01:08:45;9.10;99.90
3202;DHT22;34843;48.744;8.958;2024-02-15T01:11:11;9.00;99.90
3202;DHT22;34843;48.744;8.958;2024-02-15T01:13:36;8.90;99.90
3202;DHT22;34843;48.744;8.958;2024-02-15T01:16:02;8.80;99.90
3202;DHT22;34843;48.744;8.958;2024-02-15T01:18:29;8.80;99.90
3202;DHT22;34843;48.744;8.958;2024-02-15T01:20:55;8.70;99.90
3202;DHT22;34843;48.744;8.958;2024-02-15T01:23:21;8.60;99.90
3202;DHT22;34843;48.744;8.958;2024-02-15T01:25:47;8.60;99.90
3202;DHT22;34843;48.744;8.958;2024-02-15T01:28:13;8.50;99.90
3202;DHT22;34843;48.744;8.958;2024-02-15T01:30:39;8.40;99.90
3202;DHT22;34843;48.744;8.958;2024-02-15T01:33:04;8.40;99.90
3202;DHT22;34843;48.744;8.958;2024-02-15T01:35:30;8.30;99.90
3202;DHT22;34843;48.744;8.958;2024-02-15T01:37:56;8.20;99.90
3202;DHT22;34843;48.744;8.958;2024-02-15T01:40:22;8.20;99.90
3202;DHT22;34843;48.744;8.958;2024-02-15T01:42:48;8.20;99.90
3202;DHT22;34843;48.744;8.958;2024-02-15T01:45:15;8.00;99.90
3202;DHT22;34843;48.744;8.958;2024-02-15T01:47:41;7.90;99.90
3202;DHT22;34843;48.744;8.958;2024-02-15T01:50:10;8.00;99.90
3202;DHT22;34843;48.744;8.958;2024-02-15T01:52:37;7.90;99.90
3202;DHT22;34843;48.744;8.958;2024-02-15T01:55:03;7.80;99.90
3202;DHT22;34843;48.744;8.958;2024-02-15T01:57:35;7.80;99.90
3202;DHT22;34843;48.744;8.958;2024-02-15T02:00:01;7.70;99.90
3202;DHT22;34843;48.744;8.958;2024-02-15T02:02:31;7.60;99.90
3202;DHT22;34843;48.744;8.958;2024-02-15T02:04:58;7.60;99.90
3202;DHT22;34843;48.744;8.958;2024-02-15T02:07:23;7.60;99.90
3202;DHT22;34843;48.744;8.958;2024-02-15T02:09:49;7.50;99.90
3202;DHT22;34843;48.744;8.958;2024-02-15T02:12:15;7.50;99.90
3202;DHT22;34843;48.744;8.958;2024-02-15T02:14:41;7.50;99.90
3202;DHT22;34843;48.744;8.958;2024-02-15T02:17:16;7.50;99.90
3202;DHT22;34843;48.744;8.958;2024-02-15T02:19:42;7.50;99.90
3202;DHT22;34843;48.744;8.958;2024-02-15T02:22:09;7.40;99.90
3202;DHT22;34843;48.744;8.958;2024-02-15T02:27:26;7.30;99.90
3202;DHT22;34843;48.744;8.958;2024-02-15T02:29:52;7.30;99.90
3202;DHT22;34843;48.744;8.958;2024-02-15T02:32:18;7.20;99.90
3202;DHT22;34843;48.744;8.958;2024-02-15T02:34:43;7.10;99.90
3202;DHT22;34843;48.744;8.958;2024-02-15T02:37:09;7.10;99.90
3202;DHT22;34843;48.744;8.958;2024-02-15T02:39:35;7.10;99.90
3202;DHT22;34843;48.744;8.958;2024-02-15T02:42:01;7.00;99.90
3202;DHT22;34843;48.744;8.958;2024-02-15T02:44:26;7.00;99.90
3202;DHT22;34843;48.744;8.958;2024-02-15T02:46:52;6.90;99.90
3202;DHT22;34843;48.744;8.958;2024-02-15T02:49:17;6.80;99.90
3202;DHT22;34843;48.744;8.958;2024-02-15T02:51:43;6.80;99.90
3202;DHT22;34843;48.744;8.958;2024-02-15T02:54:08;6.70;99.90
3202;DHT22;34843;48.744;8.958;2024-02-15T02:56:34;6.60;99.90
3202;DHT22;34843;48.744;8.958;2024-02-15T02:58:59;6.50;99.90
3202;DHT22;34843;48.744;8.958;2024-02-15T03:01:25;6.40;99.90
3202;DHT22;34843;48.744;8.958;2024-02-15T03:03:52;6.50;99.90
3202;DHT22;34843;48.744;8.958;2024-02-15T03:06:20;6.40;99.90
3202;DHT22;34843;48.744;8.958;2024-02-15T03:08:46;6.40;99.90
3202;DHT22;34843;48.744;8.958;2024-02-15T03:11:12;6.40;99.90
3202;DHT22;34843;48.744;8.958;2024-02-15T03:13:38;6.30;99.90
3202;DHT22;34843;48.744;8.958;2024-02-15T03:16:03;6.30;99.90
3202;DHT22;34843;48.744;8.958;2024-02-15T03:18:30;6.20;99.90
3202;DHT22;34843;48.744;8.958;2024-02-15T03:20:57;6.20;99.90
3202;DHT22;34843;48.744;8.958;2024-02-15T03:23:23;6.10;99.90
3202;DHT22;34843;48.744;8.958;2024-02-15T03:25:48;6.10;99.90
3202;DHT22;34843;48.744;8.958;2024-02-15T03:28:15;6.00;99.90
3202;DHT22;34843;48.744;8.958;2024-02-15T03:30:41;6.00;99.90
3202;DHT22;34843;48.744;8.958;2024-02-15T03:33:08;6.00;99.90
3202;DHT22;34843;48.744;8.958;2024-02-15T03:35:34;6.00;99.90
3202;DHT22;34843;48.744;8.958;2024-02-15T03:38:00;6.00;99.90
3202;DHT22;34843;48.744;8.958;2024-02-15T03:40:26;6.00;99.90
3202;DHT22;34843;48.744;8.958;2024-02-15T03:42:53;6.00;99.90
3202;DHT22;34843;48.744;8.958;2024-02-15T03:45:19;6.00;99.90
3202;DHT22;34843;48.744;8.958;2024-02-15T03:47:44;6.00;99.90
3202;DHT22;34843;48.744;8.958;2024-02-15T03:50:10;6.00;99.90
3202;DHT22;34843;48.744;8.958;2024-02-15T03:52:37;6.10;99.90
3202;DHT22;34843;48.744;8.958;2024-02-15T03:55:04;6.10;99.90
3202;DHT22;34843;48.744;8.958;2024-02-15T03:57:29;6.20;99.90
3202;DHT22;34843;48.744;8.958;2024-02-15T03:59:55;6.30;99.90
3202;DHT22;34843;48.744;8.958;2024-02-15T04:02:23;6.40;99.90
3202;DHT22;34843;48.744;8.958;2024-02-15T04:04:52;6.50;99.90
3202;DHT22;34843;48.744;8.958;2024-02-15T04:07:18;6.50;99.90
3202;DHT22;34843;48.744;8.958;2024-02-15T04:09:43;6.70;99.90
3202;DHT22;34843;48.744;8.958;2024-02-15T04:12:09;6.70;99.90
3202;DHT22;34843;48.744;8.958;2024-02-15T04:14:34;6.80;99.90
3202;DHT22;34843;48.744;8.958;2024-02-15T04:17:00;6.80;99.90
3202;DHT22;34843;48.744;8.958;2024-02-15T04:19:27;6.70;99.90
3202;DHT22;34843;48.744;8.958;2024-02-15T04:21:53;6.70;99.90
3202;DHT22;34843;48.744;8.958;2024-02-15T04:24:21;6.70;99.90
3202;DHT22;34843;48.744;8.958;2024-02-15T04:26:47;6.80;99.90
3202;DHT22;34843;48.744;8.958;2024-02-15T04:29:14;6.90;99.90
3202;DHT22;34843;48.744;8.958;2024-02-15T04:31:40;6.90;99.90
3202;DHT22;34843;48.744;8.958;2024-02-15T04:34:08;6.90;99.90
3202;DHT22;34843;48.744;8.958;2024-02-15T04:36:35;6.90;99.90
3202;DHT22;34843;48.744;8.958;2024-02-15T04:39:00;7.00;99.90
3202;DHT22;34843;48.744;8.958;2024-02-15T04:41:30;6.90;99.90
3202;DHT22;34843;48.744;8.958;2024-02-15T04:43:55;7.00;99.90
3202;DHT22;34843;48.744;8.958;2024-02-15T04:46:21;7.10;99.90
3202;DHT22;34843;48.744;8.958;2024-02-15T04:48:48;7.10;99.90
3202;DHT22;34843;48.744;8.958;2024-02-15T04:51:17;7.20;99.90
3202;DHT22;34843;48.744;8.958;2024-02-15T04:53:43;7.20;99.90
3202;DHT22;34843;48.744;8.958;2024-02-15T04:56:11;7.30;99.90
3202;DHT22;34843;48.744;8.958;2024-02-15T04:58:40;7.30;99.90
3202;DHT22;34843;48.744;8.958;2024-02-15T05:01:15;7.40;99.90
3202;DHT22;34843;48.744;8.958;2024-02-15T05:04:07;7.40;99.90
3202;DHT22;34843;48.744;8.958;2024-02-15T05:06:41;7.40;99.90
3202;DHT22;34843;48.744;8.958;2024-02-15T05:09:07;7.40;99.90
3202;DHT22;34843;48.744;8.958;2024-02-15T05:11:36;7.50;99.90
3202;DHT22;34843;48.744;8.958;2024-02-15T05:14:05;7.40;99.90
3202;DHT22;34843;48.744;8.958;2024-02-15T05:16:32;7.40;99.90
3202;DHT22;34843;48.744;8.958;2024-02-15T05:18:58;7.40;99.90
3202;DHT22;34843;48.744;8.958;2024-02-15T05:21:23;7.40;99.90
3202;DHT22;34843;48.744;8.958;2024-02-15T05:23:49;7.40;99.90
3202;DHT22;34843;48.744;8.958;2024-02-15T05:26:14;7.40;99.90
3202;DHT22;34843;48.744;8.958;2024-02-15T05:28:51;7.40;99.90
3202;DHT22;34843;48.744;8.958;2024-02-15T05:31:20;7.40;99.90
3202;DHT22;34843;48.744;8.958;2024-02-15T05:33:49;7.40;99.90
3202;DHT22;34843;48.744;8.958;2024-02-15T05:36:16;7.40;99.90
3202;DHT22;34843;48.744;8.958;2024-02-15T05:38:49;7.30;99.90
3202;DHT22;34843;48.744;8.958;2024-02-15T05:41:15;7.30;99.90
3202;DHT22;34843;48.744;8.958;2024-02-15T05:43:42;7.20;99.90
3202;DHT22;34843;48.744;8.958;2024-02-15T05:46:08;7.30;99.90
3202;DHT22;34843;48.744;8.958;2024-02-15T05:48:35;7.30;99.90
3202;DHT22;34843;48.744;8.958;2024-02-15T05:51:01;7.40;99.90
3202;DHT22;34843;48.744;8.958;2024-02-15T05:53:27;7.40;99.90
3202;DHT22;34843;48.744;8.958;2024-02-15T05:55:54;7.40;99.90
3202;DHT22;34843;48.744;8.958;2024-02-15T05:58:20;7.40;99.90
3202;DHT22;34843;48.744;8.958;2024-02-15T06:00:46;7.50;99.90
3202;DHT22;34843;48.744;8.958;2024-02-15T06:03:12;7.50;99.90
3202;DHT22;34843;48.744;8.958;2024-02-15T06:05:38;7.40;99.90
3202;DHT22;34843;48.744;8.958;2024-02-15T06:08:05;7.40;99.90
3202;DHT22;34843;48.744;8.958;2024-02-15T06:10:30;7.40;99.90
3202;DHT22;34843;48.744;8.958;2024-02-15T06:12:57;7.40;99.90
3202;DHT22;34843;48.744;8.958;2024-02-15T06:15:23;7.40;99.90
3202;DHT22;34843;48.744;8.958;2024-02-15T06:17:49;7.40;99.90
3202;DHT22;34843;48.744;8.958;2024-02-15T06:20:15;7.30;99.90
3202;DHT22;34843;48.744;8.958;2024-02-15T06:22:43;7.30;99.90
3202;DHT22;34843;48.744;8.958;2024-02-15T06:25:09;7.20;99.90
3202;DHT22;34843;48.744;8.958;2024-02-15T06:27:36;7.20;99.90
3202;DHT22;34843;48.744;8.958;2024-02-15T06:30:06;7.10;99.90
3202;DHT22;34843;48.744;8.958;2024-02-15T06:32:50;7.10;99.90
3202;DHT22;34843;48.744;8.958;2024-02-15T06:35:34;7.00;99.90
3202;DHT22;34843;48.744;8.958;2024-02-15T06:38:19;7.00;99.90
3202;DHT22;34843;48.744;8.958;2024-02-15T06:41:03;7.00;99.90
3202;DHT22;34843;48.744;8.958;2024-02-15T06:43:28;6.90;99.90
3202;DHT22;34843;48.744;8.958;2024-02-15T06:45:54;6.90;99.90
3202;DHT22;34843;48.744;8.958;2024-02-15T06:48:20;6.80;99.90
3202;DHT22;34843;48.744;8.958;2024-02-15T06:50:48;6.90;99.90
3202;DHT22;34843;48.744;8.958;2024-02-15T06:53:14;6.90;99.90
3202;DHT22;34843;48.744;8.958;2024-02-15T06:55:40;7.00;99.90
3202;DHT22;34843;48.744;8.958;2024-02-15T06:58:05;7.00;99.90
3202;DHT22;34843;48.744;8.958;2024-02-15T07:00:31;7.10;99.90
3202;DHT22;34843;48.744;8.958;2024-02-15T07:02:57;7.20;99.90
3202;DHT22;34843;48.744;8.958;2024-02-15T07:05:22;7.20;99.90
3202;DHT22;34843;48.744;8.958;2024-02-15T07:07:49;7.30;99.90
3202;DHT22;34843;48.744;8.958;2024-02-15T07:10:15;7.40;99.90
3202;DHT22;34843;48.744;8.958;2024-02-15T07:12:42;7.70;99.90
3202;DHT22;34843;48.744;8.958;2024-02-15T07:15:09;8.40;99.90
3202;DHT22;34843;48.744;8.958;2024-02-15T07:17:35;9.40;99.90
3202;DHT22;34843;48.744;8.958;2024-02-15T07:20:03;10.20;99.90
3202;DHT22;34843;48.744;8.958;2024-02-15T07:22:30;10.90;99.90
3202;DHT22;34843;48.744;8.958;2024-02-15T07:24:56;10.90;99.90
3202;DHT22;34843;48.744;8.958;2024-02-15T07:27:22;10.50;99.90
3202;DHT22;34843;48.744;8.958;2024-02-15T07:29:50;10.40;99.90
3202;DHT22;34843;48.744;8.958;2024-02-15T07:32:16;10.90;99.90
3202;DHT22;34843;48.744;8.958;2024-02-15T07:34:42;11.60;99.90
3202;DHT22;34843;48.744;8.958;2024-02-15T07:37:09;12.00;99.90
3202;DHT22;34843;48.744;8.958;2024-02-15T07:39:34;12.20;99.90
3202;DHT22;34843;48.744;8.958;2024-02-15T07:42:01;12.30;99.90
3202;DHT22;34843;48.744;8.958;2024-02-15T07:44:30;12.50;99.90
3202;DHT22;34843;48.744;8.958;2024-02-15T07:47:00;12.70;99.90
3202;DHT22;34843;48.744;8.958;2024-02-15T07:49:26;12.70;99.90
3202;DHT22;34843;48.744;8.958;2024-02-15T07:51:51;12.70;99.90
3202;DHT22;34843;48.744;8.958;2024-02-15T07:54:23;12.60;99.90
3202;DHT22;34843;48.744;8.958;2024-02-15T07:56:49;12.60;99.90
3202;DHT22;34843;48.744;8.958;2024-02-15T07:59:15;12.10;99.90
3202;DHT22;34843;48.744;8.958;2024-02-15T08:01:47;11.80;99.90
3202;DHT22;34843;48.744;8.958;2024-02-15T08:04:18;11.40;99.90
3202;DHT22;34843;48.744;8.958;2024-02-15T08:06:44;11.10;99.90
3202;DHT22;34843;48.744;8.958;2024-02-15T08:09:10;10.70;99.90
3202;DHT22;34843;48.744;8.958;2024-02-15T08:11:43;10.80;99.90
3202;DHT22;34843;48.744;8.958;2024-02-15T08:14:09;10.70;99.90
3202;DHT22;34843;48.744;8.958;2024-02-15T08:16:37;10.70;99.90
3202;DHT22;34843;48.744;8.958;2024-02-15T08:19:06;10.70;99.90
3202;DHT22;34843;48.744;8.958;2024-02-15T08:21:33;10.70;99.90
3202;DHT22;34843;48.744;8.958;2024-02-15T08:24:03;10.90;99.90
3202;DHT22;34843;48.744;8.958;2024-02-15T08:26:40;11.00;99.90
3202;DHT22;34843;48.744;8.958;2024-02-15T08:29:07;11.10;99.90
3202;DHT22;34843;48.744;8.958;2024-02-15T08:31:32;11.10;99.90
3202;DHT22;34843;48.744;8.958;2024-02-15T08:33:59;11.10;99.90
3202;DHT22;34843;48.744;8.958;2024-02-15T08:36:25;11.20;99.90
3202;DHT22;34843;48.744;8.958;2024-02-15T08:38:51;11.30;99.90
3202;DHT22;34843;48.744;8.958;2024-02-15T08:41:16;11.40;99.90
3202;DHT22;34843;48.744;8.958;2024-02-15T08:43:46;11.60;99.90
3202;DHT22;34843;48.744;8.958;2024-02-15T08:46:14;11.50;99.90
3202;DHT22;34843;48.744;8.958;2024-02-15T08:48:39;11.60;99.90
3202;DHT22;34843;48.744;8.958;2024-02-15T08:51:06;11.60;99.90
3202;DHT22;34843;48.744;8.958;2024-02-15T08:53:34;11.60;99.90
3202;DHT22;34843;48.744;8.958;2024-02-15T08:56:02;11.70;99.90
3202;DHT22;34843;48.744;8.958;2024-02-15T08:58:27;11.80;99.90
3202;DHT22;34843;48.744;8.958;2024-02-15T09:00:55;11.90;99.90
3202;DHT22;34843;48.744;8.958;2024-02-15T09:03:21;12.00;99.90
3202;DHT22;34843;48.744;8.958;2024-02-15T09:05:47;12.10;99.90
3202;DHT22;34843;48.744;8.958;2024-02-15T09:08:13;12.10;99.90
3202;DHT22;34843;48.744;8.958;2024-02-15T09:10:40;12.20;99.90
3202;DHT22;34843;48.744;8.958;2024-02-15T09:13:05;12.30;99.90
3202;DHT22;34843;48.744;8.958;2024-02-15T09:15:32;12.30;99.90
3202;DHT22;34843;48.744;8.958;2024-02-15T09:17:57;12.40;99.90
3202;DHT22;34843;48.744;8.958;2024-02-15T09:20:23;12.40;99.90
3202;DHT22;34843;48.744;8.958;2024-02-15T09:22:54;12.50;99.90
3202;DHT22;34843;48.744;8.958;2024-02-15T09:25:21;12.50;99.90
3202;DHT22;34843;48.744;8.958;2024-02-15T09:27:50;12.40;99.90
3202;DHT22;34843;48.744;8.958;2024-02-15T09:30:16;12.40;99.90
3202;DHT22;34843;48.744;8.958;2024-02-15T09:32:43;12.30;99.90
3202;DHT22;34843;48.744;8.958;2024-02-15T09:35:09;12.30;99.90
3202;DHT22;34843;48.744;8.958;2024-02-15T09:37:38;12.30;99.90
3202;DHT22;34843;48.744;8.958;2024-02-15T09:40:13;12.20;99.90
3202;DHT22;34843;48.744;8.958;2024-02-15T09:42:40;12.00;99.90
3202;DHT22;34843;48.744;8.958;2024-02-15T09:45:07;11.90;99.90
3202;DHT22;34843;48.744;8.958;2024-02-15T09:47:37;11.90;99.90
3202;DHT22;34843;48.744;8.958;2024-02-15T09:50:06;12.00;99.90
3202;DHT22;34843;48.744;8.958;2024-02-15T09:52:32;12.00;99.90
3202;DHT22;34843;48.744;8.958;2024-02-15T09:55:02;12.00;99.90
3202;DHT22;34843;48.744;8.958;2024-02-15T09:57:29;12.00;99.90
3202;DHT22;34843;48.744;8.958;2024-02-15T09:59:57;12.00;99.90
3202;DHT22;34843;48.744;8.958;2024-02-15T10:02:23;12.10;99.90
3202;DHT22;34843;48.744;8.958;2024-02-15T10:04:49;12.20;99.90
3202;DHT22;34843;48.744;8.958;2024-02-15T10:07:15;12.30;99.90
3202;DHT22;34843;48.744;8.958;2024-02-15T10:09:43;12.40;99.90
3202;DHT22;34843;48.744;8.958;2024-02-15T10:12:09;12.50;99.90
3202;DHT22;34843;48.744;8.958;2024-02-15T10:14:35;12.60;99.90
3202;DHT22;34843;48.744;8.958;2024-02-15T10:17:08;12.60;99.90
3202;DHT22;34843;48.744;8.958;2024-02-15T10:19:38;12.70;99.90
3202;DHT22;34843;48.744;8.958;2024-02-15T10:22:10;12.80;99.90
3202;DHT22;34843;48.744;8.958;2024-02-15T10:24:37;12.80;99.90
3202;DHT22;34843;48.744;8.958;2024-02-15T10:27:05;12.90;99.90
3202;DHT22;34843;48.744;8.958;2024-02-15T10:29:36;12.90;99.90
3202;DHT22;34843;48.744;8.958;2024-02-15T10:32:03;13.00;99.90
3202;DHT22;34843;48.744;8.958;2024-02-15T10:34:29;13.10;99.90
3202;DHT22;34843;48.744;8.958;2024-02-15T10:37:13;13.10;99.90
3202;DHT22;34843;48.744;8.958;2024-02-15T10:39:39;13.20;99.90
3202;DHT22;34843;48.744;8.958;2024-02-15T10:42:08;13.30;99.90
3202;DHT22;34843;48.744;8.958;2024-02-15T10:44:37;13.40;99.90
3202;DHT22;34843;48.744;8.958;2024-02-15T10:47:04;13.50;99.90
3202;DHT22;34843;48.744;8.958;2024-02-15T10:49:32;13.60;99.90
3202;DHT22;34843;48.744;8.958;2024-02-15T10:52:00;13.80;99.90
3202;DHT22;34843;48.744;8.958;2024-02-15T10:54:52;13.90;99.90
3202;DHT22;34843;48.744;8.958;2024-02-15T10:57:21;13.90;99.90
3202;DHT22;34843;48.744;8.958;2024-02-15T10:59:57;14.00;99.90
3202;DHT22;34843;48.744;8.958;2024-02-15T11:02:30;14.00;99.90
3202;DHT22;34843;48.744;8.958;2024-02-15T11:05:02;14.10;99.90
3202;DHT22;34843;48.744;8.958;2024-02-15T11:07:31;14.20;99.90
3202;DHT22;34843;48.744;8.958;2024-02-15T11:09:57;14.20;99.90
3202;DHT22;34843;48.744;8.958;2024-02-15T11:12:24;14.30;99.90
3202;DHT22;34843;48.744;8.958;2024-02-15T11:14:52;14.20;99.90
3202;DHT22;34843;48.744;8.958;2024-02-15T11:20:11;14.50;99.90
3202;DHT22;34843;48.744;8.958;2024-02-15T11:22:57;14.50;99.90
3202;DHT22;34843;48.744;8.958;2024-02-15T11:25:32;14.70;99.90
3202;DHT22;34843;48.744;8.958;2024-02-15T11:30:50;14.50;99.90
3202;DHT22;34843;48.744;8.958;2024-02-15T11:33:28;14.60;99.90
3202;DHT22;34843;48.744;8.958;2024-02-15T11:36:05;14.70;99.90
3202;DHT22;34843;48.744;8.958;2024-02-15T11:38:31;14.90;99.90
3202;DHT22;34843;48.744;8.958;2024-02-15T11:46:18;15.10;99.90
3202;DHT22;34843;48.744;8.958;2024-02-15T11:48:45;15.30;99.90
3202;DHT22;34843;48.744;8.958;2024-02-15T11:51:25;15.30;99.90
3202;DHT22;34843;48.744;8.958;2024-02-15T11:54:04;15.20;99.90
3202;DHT22;34843;48.744;8.958;2024-02-15T11:56:56;15.30;99.90
3202;DHT22;34843;48.744;8.958;2024-02-15T11:59:42;15.30;99.90
3202;DHT22;34843;48.744;8.958;2024-02-15T12:02:19;15.40;99.90
3202;DHT22;34843;48.744;8.958;2024-02-15T12:05:04;15.50;99.90
3202;DHT22;34843;48.744;8.958;2024-02-15T12:07:49;15.40;99.90
3202;DHT22;34843;48.744;8.958;2024-02-15T12:10:33;15.40;99.90
3202;DHT22;34843;48.744;8.958;2024-02-15T12:13:18;15.40;99.90
3202;DHT22;34843;48.744;8.958;2024-02-15T12:16:02;15.50;99.90
3202;DHT22;34843;48.744;8.958;2024-02-15T12:18:46;15.70;99.90
3202;DHT22;34843;48.744;8.958;2024-02-15T12:21:20;15.90;99.90
3202;DHT22;34843;48.744;8.958;2024-02-15T12:23:48;16.10;99.90
3202;DHT22;34843;48.744;8.958;2024-02-15T12:26:19;16.30;99.90
3202;DHT22;34843;48.744;8.958;2024-02-15T12:28:50;16.50;99.90
3202;DHT22;34843;48.744;8.958;2024-02-15T12:31:16;16.60;99.90
3202;DHT22;34843;48.744;8.958;2024-02-15T12:33:42;16.90;99.90
3202;DHT22;34843;48.744;8.958;2024-02-15T12:36:08;17.10;99.90
3202;DHT22;34843;48.744;8.958;2024-02-15T12:38:35;17.20;99.90
3202;DHT22;34843;48.744;8.958;2024-02-15T12:41:24;17.40;99.90
3202;DHT22;34843;48.744;8.958;2024-02-15T12:43:55;17.40;99.90
3202;DHT22;34843;48.744;8.958;2024-02-15T12:46:22;17.60;99.90
3202;DHT22;34843;48.744;8.958;2024-02-15T12:48:48;17.70;99.90
3202;DHT22;34843;48.744;8.958;2024-02-15T12:51:15;17.80;99.90
3202;DHT22;34843;48.744;8.958;2024-02-15T12:53:41;17.80;99.90
3202;DHT22;34843;48.744;8.958;2024-02-15T12:56:09;17.70;99.90
3202;DHT22;34843;48.744;8.958;2024-02-15T12:58:35;17.70;99.90
3202;DHT22;34843;48.744;8.958;2024-02-15T13:01:01;17.60;99.90
3202;DHT22;34843;48.744;8.958;2024-02-15T13:03:27;17.60;99.90
3202;DHT22;34843;48.744;8.958;2024-02-15T13:05:52;17.50;99.90
3202;DHT22;34843;48.744;8.958;2024-02-15T13:08:18;17.60;99.90
3202;DHT22;34843;48.744;8.958;2024-02-15T13:10:45;17.50;99.90
3202;DHT22;34843;48.744;8.958;2024-02-15T13:13:11;17.60;99.90
3202;DHT22;34843;48.744;8.958;2024-02-15T13:15:37;17.60;99.90
3202;DHT22;34843;48.744;8.958;2024-02-15T13:18:03;17.60;99.90
3202;DHT22;34843;48.744;8.958;2024-02-15T13:20:29;17.70;99.90
3202;DHT22;34843;48.744;8.958;2024-02-15T13:23:00;17.70;99.90
3202;DHT22;34843;48.744;8.958;2024-02-15T13:25:28;17.80;99.90
3202;DHT22;34843;48.744;8.958;2024-02-15T13:27:54;17.80;99.90
3202;DHT22;34843;48.744;8.958;2024-02-15T13:30:19;17.80;99.90
3202;DHT22;34843;48.744;8.958;2024-02-15T13:32:49;17.80;99.90
3202;DHT22;34843;48.744;8.958;2024-02-15T13:35:17;17.80;99.90
3202;DHT22;34843;48.744;8.958;2024-02-15T13:37:52;17.80;99.90
3202;DHT22;34843;48.744;8.958;2024-02-15T13:40:19;17.80;99.90
3202;DHT22;34843;48.744;8.958;2024-02-15T13:42:49;17.80;99.90
3202;DHT22;34843;48.744;8.958;2024-02-15T13:45:39;17.80;99.90
3202;DHT22;34843;48.744;8.958;2024-02-15T13:48:05;17.70;99.90
3202;DHT22;34843;48.744;8.958;2024-02-15T13:50:33;17.80;99.90
3202;DHT22;34843;48.744;8.958;2024-02-15T13:52:58;17.60;99.90
3202;DHT22;34843;48.744;8.958;2024-02-15T13:55:25;17.60;99.90
3202;DHT22;34843;48.744;8.958;2024-02-15T13:57:54;17.60;99.90
3202;DHT22;34843;48.744;8.958;2024-02-15T14:00:24;17.60;99.90
3202;DHT22;34843;48.744;8.958;2024-02-15T14:02:58;17.60;99.90
3202;DHT22;34843;48.744;8.958;2024-02-15T14:05:26;17.60;99.90
3202;DHT22;34843;48.744;8.958;2024-02-15T14:08:03;17.70;99.90
3202;DHT22;34843;48.744;8.958;2024-02-15T14:10:33;17.60;99.90
3202;DHT22;34843;48.744;8.958;2024-02-15T14:13:03;17.60;99.90
3202;DHT22;34843;48.744;8.958;2024-02-15T14:15:31;17.60;99.90
3202;DHT22;34843;48.744;8.958;2024-02-15T14:18:03;17.70;99.90
3202;DHT22;34843;48.744;8.958;2024-02-15T14:20:29;17.60;99.90
3202;DHT22;34843;48.744;8.958;2024-02-15T14:22:54;17.60;99.90
3202;DHT22;34843;48.744;8.958;2024-02-15T14:25:24;17.60;99.90
3202;DHT22;34843;48.744;8.958;2024-02-15T14:27:51;17.50;99.90
3202;DHT22;34843;48.744;8.958;2024-02-15T14:30:18;17.60;99.90
3202;DHT22;34843;48.744;8.958;2024-02-15T14:33:02;17.60;99.90
3202;DHT22;34843;48.744;8.958;2024-02-15T14:35:33;17.60;99.90
3202;DHT22;34843;48.744;8.958;2024-02-15T14:38:03;17.60;99.90
3202;DHT22;34843;48.744;8.958;2024-02-15T14:40:34;17.60;99.90
3202;DHT22;34843;48.744;8.958;2024-02-15T14:43:01;17.60;99.90
3202;DHT22;34843;48.744;8.958;2024-02-15T14:45:27;17.60;99.90
3202;DHT22;34843;48.744;8.958;2024-02-15T14:47:53;17.50;99.90
3202;DHT22;34843;48.744;8.958;2024-02-15T14:50:18;17.50;99.90
3202;DHT22;34843;48.744;8.958;2024-02-15T14:52:46;17.50;99.90
3202;DHT22;34843;48.744;8.958;2024-02-15T14:55:13;17.50;99.90
3202;DHT22;34843;48.744;8.958;2024-02-15T14:57:38;17.50;99.90
3202;DHT22;34843;48.744;8.958;2024-02-15T15:00:05;17.50;99.90
3202;DHT22;34843;48.744;8.958;2024-02-15T15:02:38;17.40;99.90
3202;DHT22;34843;48.744;8.958;2024-02-15T15:05:04;17.30;99.90
3202;DHT22;34843;48.744;8.958;2024-02-15T15:07:48;17.30;99.90
3202;DHT22;34843;48.744;8.958;2024-02-15T15:10:32;17.20;99.90
3202;DHT22;34843;48.744;8.958;2024-02-15T15:13:16;17.10;99.90
3202;DHT22;34843;48.744;8.958;2024-02-15T15:15:42;17.00;99.90
3202;DHT22;34843;48.744;8.958;2024-02-15T15:18:08;16.80;99.90
3202;DHT22;34843;48.744;8.958;2024-02-15T15:20:34;16.60;99.90
3202;DHT22;34843;48.744;8.958;2024-02-15T15:23:01;16.60;99.90
3202;DHT22;34843;48.744;8.958;2024-02-15T15:25:27;16.50;99.90
3202;DHT22;34843;48.744;8.958;2024-02-15T15:27:55;16.30;99.90
3202;DHT22;34843;48.744;8.958;2024-02-15T15:30:22;16.10;99.90
3202;DHT22;34843;48.744;8.958;2024-02-15T15:32:48;15.90;99.90
3202;DHT22;34843;48.744;8.958;2024-02-15T15:35:14;15.80;99.90
3202;DHT22;34843;48.744;8.958;2024-02-15T15:37:39;15.70;99.90
3202;DHT22;34843;48.744;8.958;2024-02-15T15:40:05;15.70;99.90
3202;DHT22;34843;48.744;8.958;2024-02-15T15:42:35;15.70;99.90
3202;DHT22;34843;48.744;8.958;2024-02-15T15:45:01;15.80;99.90
3202;DHT22;34843;48.744;8.958;2024-02-15T15:47:26;15.70;99.90
3202;DHT22;34843;48.744;8.958;2024-02-15T15:49:52;15.60;99.90
3202;DHT22;34843;48.744;8.958;2024-02-15T15:52:19;15.60;99.90
3202;DHT22;34843;48.744;8.958;2024-02-15T15:54:45;15.40;99.90
3202;DHT22;34843;48.744;8.958;2024-02-15T15:57:11;15.40;99.90
3202;DHT22;34843;48.744;8.958;2024-02-15T15:59:36;15.30;99.90
3202;DHT22;34843;48.744;8.958;2024-02-15T16:02:02;15.50;99.90
3202;DHT22;34843;48.744;8.958;2024-02-15T16:04:30;15.40;99.90
3202;DHT22;34843;48.744;8.958;2024-02-15T16:06:55;15.40;99.90
3202;DHT22;34843;48.744;8.958;2024-02-15T16:09:21;15.30;99.90
3202;DHT22;34843;48.744;8.958;2024-02-15T16:11:48;15.20;99.90